createdAt,value
2018-06-16T00:01:06.267Z,71.80
2018-06-16T00:03:34.554Z,71.60
2018-06-16T00:06:02.881Z,71.30
2018-06-16T00:08:31.352Z,72.20
2018-06-16T00:10:59.662Z,72.20
2018-06-16T00:13:27.974Z,72.50
2018-06-16T00:15:56.280Z,72.50
2018-06-16T00:18:24.599Z,72.70
2018-06-16T00:20:52.929Z,72.70
2018-06-16T00:23:21.318Z,72.60
2018-06-16T00:25:49.728Z,72.50
2018-06-16T00:30:46.031Z,72.50
2018-06-16T00:33:14.300Z,72.90
2018-06-16T00:35:42.605Z,72.50
2018-06-16T00:38:10.860Z,72.40
2018-06-16T00:40:39.157Z,72.60
2018-06-16T00:43:07.446Z,72.50
2018-06-16T00:45:35.742Z,72.30
2018-06-16T00:48:04.080Z,71.80
2018-06-16T00:50:32.373Z,72.10
2018-06-16T00:53:00.701Z,71.80
2018-06-16T00:55:28.970Z,72.00
2018-06-16T00:57:57.284Z,71.90
2018-06-16T01:00:25.672Z,71.70
2018-06-16T01:02:53.966Z,71.70
2018-06-16T01:05:22.260Z,71.30
2018-06-16T01:07:50.555Z,71.30
2018-06-16T01:10:18.918Z,71.10
2018-06-16T01:12:47.199Z,70.80
2018-06-16T01:15:15.500Z,70.90
2018-06-16T01:17:43.778Z,71.00
2018-06-16T01:20:12.091Z,71.20
2018-06-16T01:22:40.419Z,71.50
2018-06-16T01:25:08.769Z,71.80
2018-06-16T01:27:37.111Z,71.60
2018-06-16T01:30:05.502Z,71.60
2018-06-16T01:32:33.951Z,71.40
2018-06-16T01:35:02.284Z,71.70
2018-06-16T01:37:30.588Z,71.60
2018-06-16T01:39:59.172Z,71.60
2018-06-16T01:44:55.574Z,72.40
2018-06-16T01:47:23.902Z,72.30
2018-06-16T01:49:52.277Z,74.30
2018-06-16T01:52:20.557Z,75.40
2018-06-16T01:54:48.860Z,76.80
2018-06-16T01:57:17.150Z,77.40
2018-06-16T02:02:13.489Z,77.40
2018-06-16T02:04:41.834Z,78.80
2018-06-16T02:07:10.107Z,79.40
2018-06-16T02:09:38.901Z,79.30
2018-06-16T02:12:07.172Z,78.90
2018-06-16T02:14:35.488Z,81.40
2018-06-16T02:17:03.798Z,81.70
2018-06-16T02:19:32.138Z,81.80
2018-06-16T02:22:00.489Z,82.80
2018-06-16T02:24:28.867Z,82.60
2018-06-16T02:26:57.227Z,82.00
2018-06-16T02:29:25.524Z,82.80
2018-06-16T02:31:54.432Z,82.70
2018-06-16T02:34:23.334Z,83.50
2018-06-16T02:36:52.326Z,83.40
2018-06-16T02:39:21.364Z,82.90
2018-06-16T02:41:50.232Z,82.80
2018-06-16T02:44:19.208Z,82.60
2018-06-16T02:46:48.150Z,82.70
2018-06-16T02:49:17.193Z,83.20
2018-06-16T02:51:46.140Z,83.20
2018-06-16T02:54:15.021Z,82.60
2018-06-16T02:56:43.868Z,82.60
2018-06-16T03:01:41.599Z,82.70
2018-06-16T03:04:09.920Z,83.90
2018-06-16T03:06:38.731Z,84.60
2018-06-16T03:09:07.794Z,84.20
2018-06-16T03:11:36.070Z,84.80
2018-06-16T03:14:04.511Z,84.80
2018-06-16T03:16:32.881Z,84.80
2018-06-16T03:19:01.515Z,84.70
2018-06-16T03:21:29.820Z,84.60
2018-06-16T03:23:58.189Z,85.10
2018-06-16T03:26:26.553Z,85.10
2018-06-16T03:28:54.805Z,85.00
2018-06-16T03:31:23.170Z,86.00
2018-06-16T03:33:51.525Z,86.20
2018-06-16T03:36:19.882Z,86.20
2018-06-16T03:38:48.376Z,86.50
2018-06-16T03:41:16.708Z,86.60
2018-06-16T03:43:45.033Z,86.90
2018-06-16T03:46:13.369Z,87.10
2018-06-16T03:51:09.817Z,87.60
2018-06-16T03:53:38.094Z,87.20
2018-06-16T03:56:06.360Z,87.40
2018-06-16T03:58:34.684Z,87.40
2018-06-16T04:01:02.989Z,87.00
2018-06-16T04:03:31.264Z,87.80
2018-06-16T04:05:59.623Z,87.50
2018-06-16T04:08:27.969Z,87.70
2018-06-16T04:10:56.281Z,87.80
2018-06-16T04:13:24.677Z,88.10
2018-06-16T04:15:52.952Z,88.30
2018-06-16T04:18:21.270Z,88.30
2018-06-16T04:20:49.580Z,88.40
2018-06-16T04:23:17.856Z,88.20
2018-06-16T04:25:46.168Z,88.80
2018-06-16T04:28:14.463Z,89.20
2018-06-16T04:30:42.769Z,89.20
2018-06-16T04:33:11.109Z,89.20
2018-06-16T04:35:39.407Z,89.00
2018-06-16T04:38:07.894Z,88.70
2018-06-16T04:40:36.225Z,88.00
2018-06-16T04:43:04.563Z,88.10
2018-06-16T04:45:32.908Z,87.20
2018-06-16T04:48:01.219Z,87.10
2018-06-16T04:50:29.628Z,86.80
2018-06-16T04:52:57.976Z,86.90
2018-06-16T04:55:26.255Z,86.20
2018-06-16T04:57:54.575Z,86.30
2018-06-16T05:00:22.934Z,86.20
2018-06-16T05:02:51.233Z,86.30
2018-06-16T05:05:19.548Z,86.80
2018-06-16T05:07:47.932Z,86.60
2018-06-16T05:10:16.292Z,86.80
2018-06-16T05:12:44.640Z,87.10
2018-06-16T05:15:13.026Z,87.60
2018-06-16T05:17:41.324Z,87.40
2018-06-16T05:20:09.617Z,87.20
2018-06-16T05:22:37.892Z,87.60
2018-06-16T05:25:06.247Z,86.70
2018-06-16T05:27:34.609Z,87.30
2018-06-16T05:30:02.943Z,86.90
2018-06-16T05:32:31.252Z,87.00
2018-06-16T05:34:59.627Z,87.70
2018-06-16T05:37:27.928Z,87.90
2018-06-16T05:39:56.257Z,86.90
2018-06-16T05:42:24.559Z,86.20
2018-06-16T05:44:52.877Z,86.60
2018-06-16T05:47:21.199Z,86.50
2018-06-16T05:49:49.595Z,85.90
2018-06-16T05:52:17.950Z,85.60
2018-06-16T05:54:46.277Z,85.00
2018-06-16T05:57:14.599Z,85.50
2018-06-16T05:59:42.907Z,85.90
2018-06-16T06:02:11.377Z,84.80
2018-06-16T06:04:39.699Z,83.70
2018-06-16T06:07:07.994Z,84.00
2018-06-16T06:09:36.268Z,83.50
2018-06-16T06:12:04.675Z,81.50
2018-06-16T06:14:32.999Z,81.80
2018-06-16T06:17:01.314Z,82.00
2018-06-16T06:19:29.616Z,79.60
2018-06-16T06:21:57.938Z,79.80
2018-06-16T06:24:26.224Z,79.80
2018-06-16T06:26:54.530Z,80.70
2018-06-16T06:29:22.869Z,80.00
2018-06-16T06:31:51.194Z,79.20
2018-06-16T06:34:19.465Z,79.10
2018-06-16T06:36:48.023Z,79.00
2018-06-16T06:39:16.302Z,78.50
2018-06-16T06:41:44.640Z,79.50
2018-06-16T06:44:12.916Z,77.80
2018-06-16T06:46:41.243Z,77.20
2018-06-16T06:49:09.629Z,77.40
2018-06-16T06:51:37.960Z,76.40
2018-06-16T06:54:06.233Z,76.60
2018-06-16T06:56:34.516Z,76.30
2018-06-16T06:59:02.872Z,76.80
2018-06-16T07:01:31.245Z,77.40
2018-06-16T07:03:59.580Z,77.20
2018-06-16T07:06:27.897Z,75.40
2018-06-16T07:08:56.217Z,75.40
2018-06-16T07:13:52.585Z,74.60
2018-06-16T07:16:20.864Z,74.00
2018-06-16T07:18:49.174Z,74.30
2018-06-16T07:21:17.534Z,74.30
2018-06-16T07:23:45.836Z,74.10
2018-06-16T07:28:42.269Z,74.20
2018-06-16T07:31:10.608Z,73.30
2018-06-16T07:33:38.900Z,70.90
2018-06-16T07:36:07.264Z,70.20
2018-06-16T07:38:35.528Z,69.70
2018-06-16T07:41:03.835Z,69.50
2018-06-16T07:43:32.221Z,69.20
2018-06-16T07:46:00.517Z,68.60
2018-06-16T07:48:28.841Z,68.50
2018-06-16T07:50:57.109Z,69.00
2018-06-16T07:53:25.409Z,68.90
2018-06-16T07:58:21.776Z,67.00
2018-06-16T08:03:18.153Z,64.20
2018-06-16T08:05:46.685Z,64.70
2018-06-16T08:08:14.967Z,65.10
2018-06-16T08:10:43.268Z,65.90
2018-06-16T08:13:11.620Z,66.90
2018-06-16T08:15:39.928Z,67.80
2018-06-16T08:20:36.425Z,64.20
2018-06-16T08:23:04.747Z,64.10
2018-06-16T08:25:33.455Z,64.50
2018-06-16T08:28:02.568Z,65.60
2018-06-16T08:32:58.916Z,63.20
2018-06-16T08:35:27.196Z,62.50
2018-06-16T08:37:55.510Z,63.10
2018-06-16T08:40:23.853Z,62.60
2018-06-16T08:42:52.156Z,61.20
2018-06-16T08:47:48.496Z,61.00
2018-06-16T08:50:16.824Z,60.70
2018-06-16T08:52:45.160Z,61.10
2018-06-16T08:57:41.513Z,62.50
2018-06-16T09:00:09.829Z,61.90
2018-06-16T09:02:38.144Z,61.20
2018-06-16T09:05:06.782Z,61.50
2018-06-16T09:10:03.992Z,59.50
2018-06-16T09:12:32.315Z,60.60
2018-06-16T09:15:00.853Z,59.10
2018-06-16T09:17:29.277Z,59.40
2018-06-16T09:19:57.635Z,59.80
2018-06-16T09:22:25.972Z,59.60
2018-06-16T09:27:22.696Z,59.90
2018-06-16T09:29:51.005Z,60.50
2018-06-16T09:32:19.330Z,60.30
2018-06-16T09:34:47.616Z,59.40
2018-06-16T09:37:15.902Z,58.90
2018-06-16T09:39:44.193Z,59.20
2018-06-16T09:42:12.534Z,59.50
2018-06-16T09:44:40.839Z,60.00
2018-06-16T09:47:09.143Z,58.20
2018-06-16T09:49:37.460Z,59.30
2018-06-16T09:52:05.804Z,57.90
2018-06-16T09:54:34.203Z,56.50
2018-06-16T09:59:30.554Z,56.90
2018-06-16T10:01:58.895Z,56.30
2018-06-16T10:04:27.219Z,56.50
2018-06-16T10:06:55.578Z,54.90
2018-06-16T10:09:23.945Z,55.50
2018-06-16T10:11:52.271Z,56.10
2018-06-16T10:14:20.648Z,57.10
2018-06-16T10:16:49.059Z,53.30
2018-06-16T10:19:17.414Z,53.30
2018-06-16T10:21:45.725Z,52.20
2018-06-16T10:24:14.072Z,52.10
2018-06-16T10:26:42.381Z,51.00
2018-06-16T10:29:10.745Z,51.00
2018-06-16T10:31:39.086Z,49.50
2018-06-16T10:34:07.417Z,49.60
2018-06-16T10:36:35.783Z,47.90
2018-06-16T10:39:05.504Z,47.70
2018-06-16T10:41:33.821Z,47.60
2018-06-16T10:44:02.182Z,47.50
2018-06-16T10:46:30.545Z,46.10
2018-06-16T10:48:58.999Z,44.90
2018-06-16T10:51:27.442Z,44.30
2018-06-16T10:53:55.761Z,43.90
2018-06-16T10:56:24.141Z,43.90
2018-06-16T10:58:52.606Z,44.60
2018-06-16T11:03:49.235Z,42.50
2018-06-16T11:06:17.507Z,44.50
2018-06-16T11:08:45.809Z,43.40
2018-06-16T11:11:14.127Z,43.20
2018-06-16T11:13:42.426Z,45.00
2018-06-16T11:16:10.841Z,44.70
2018-06-16T11:18:39.194Z,44.90
2018-06-16T11:21:07.534Z,45.20
2018-06-16T11:23:35.922Z,44.90
2018-06-16T11:28:32.254Z,46.00
2018-06-16T11:31:00.567Z,45.10
2018-06-16T11:33:29.063Z,45.80
2018-06-16T11:35:57.372Z,45.00
2018-06-16T11:38:25.679Z,44.70
2018-06-16T11:40:54.008Z,46.80
2018-06-16T11:43:22.289Z,46.80
2018-06-16T11:47:19.774Z,46.00
2018-06-16T11:49:48.140Z,45.80
2018-06-16T11:52:16.465Z,46.60
2018-06-16T11:54:44.781Z,45.00
2018-06-16T11:57:13.135Z,45.70
2018-06-16T11:59:41.518Z,44.60
2018-06-16T12:02:10.044Z,44.60
2018-06-16T12:04:38.918Z,45.50
2018-06-16T12:07:07.382Z,46.00
2018-06-16T12:09:35.765Z,46.40
2018-06-16T12:12:04.973Z,46.10
2018-06-16T12:14:33.366Z,46.70
2018-06-16T12:17:01.751Z,47.30
2018-06-16T12:19:30.096Z,48.10
2018-06-16T12:21:58.413Z,47.20
2018-06-16T12:24:26.887Z,47.20
2018-06-16T12:26:55.178Z,47.70
2018-06-16T12:29:23.590Z,46.10
2018-06-16T12:31:51.917Z,45.90
2018-06-16T12:34:20.233Z,45.70
2018-06-16T12:36:48.605Z,47.40
2018-06-16T12:39:17.003Z,44.90
2018-06-16T12:41:45.308Z,45.60
2018-06-16T12:44:13.722Z,45.70
2018-06-16T12:46:42.135Z,46.20
2018-06-16T12:49:10.561Z,46.60
2018-06-16T12:51:38.987Z,45.10
2018-06-16T12:59:03.504Z,46.00
2018-06-16T13:01:31.894Z,46.80
2018-06-16T13:04:00.337Z,45.40
2018-06-16T13:06:28.781Z,47.40
2018-06-16T13:08:57.149Z,46.60
2018-06-16T13:11:25.496Z,46.20
2018-06-16T13:13:53.832Z,45.60
2018-06-16T13:16:22.251Z,45.80
2018-06-16T13:18:50.568Z,47.50
2018-06-16T13:21:18.943Z,47.60
2018-06-16T13:23:47.261Z,46.70
2018-06-16T13:26:15.567Z,48.20
2018-06-16T13:28:43.879Z,47.50
2018-06-16T13:31:12.233Z,47.90
2018-06-16T13:33:40.572Z,47.60
2018-06-16T13:38:36.886Z,47.70
2018-06-16T13:41:05.271Z,47.90
2018-06-16T13:43:33.571Z,48.50
2018-06-16T13:46:01.893Z,49.00
2018-06-16T13:48:30.212Z,49.40
2018-06-16T13:50:58.645Z,48.50
2018-06-16T13:53:26.999Z,48.60
2018-06-16T13:55:55.354Z,48.80
2018-06-16T13:58:23.696Z,49.30
2018-06-16T14:00:52.061Z,50.40
2018-06-16T14:03:20.376Z,50.00
2018-06-16T14:05:48.681Z,50.30
2018-06-16T14:08:16.982Z,50.20
2018-06-16T14:10:45.406Z,50.60
2018-06-16T14:13:13.807Z,50.60
2018-06-16T14:16:13.009Z,51.70
2018-06-16T14:18:41.425Z,51.90
2018-06-16T14:21:09.749Z,51.10
2018-06-16T14:23:38.126Z,50.90
2018-06-16T14:26:06.508Z,51.60
2018-06-16T14:28:34.816Z,52.00
2018-06-16T14:31:03.117Z,51.30
2018-06-16T14:33:31.453Z,53.40
2018-06-16T14:35:59.791Z,54.10
2018-06-16T14:38:28.202Z,54.90
2018-06-16T14:40:56.562Z,56.00
2018-06-16T14:43:25.139Z,56.30
2018-06-16T14:45:53.521Z,56.30
2018-06-16T14:48:25.056Z,56.40
2018-06-16T14:50:53.690Z,56.00
2018-06-16T14:53:22.084Z,56.40
2018-06-16T14:55:50.596Z,56.60
2018-06-16T14:58:18.997Z,56.90
2018-06-16T15:00:53.855Z,56.70
2018-06-16T15:03:22.285Z,56.60
2018-06-16T15:05:51.419Z,56.10
2018-06-16T15:08:19.832Z,55.90
2018-06-16T15:10:48.417Z,55.50
2018-06-16T15:13:16.793Z,56.20
2018-06-16T15:15:45.194Z,56.70
2018-06-16T15:20:41.677Z,57.30
2018-06-16T15:23:10.930Z,57.10
2018-06-16T15:25:39.358Z,57.20
2018-06-16T15:28:08.025Z,57.20
2018-06-16T15:30:36.400Z,58.60
2018-06-16T15:33:04.893Z,58.40
2018-06-16T15:35:33.356Z,58.80
2018-06-16T15:38:01.713Z,58.70
2018-06-16T15:40:30.144Z,58.20
2018-06-16T15:42:58.500Z,58.20
2018-06-16T15:45:26.851Z,59.50
2018-06-16T15:47:55.284Z,59.00
2018-06-16T15:50:23.694Z,59.80
2018-06-16T15:52:52.188Z,59.90
2018-06-16T15:55:20.644Z,59.50
2018-06-16T15:57:49.042Z,59.20
2018-06-16T16:00:17.457Z,60.20
2018-06-16T16:02:45.960Z,59.30
2018-06-16T16:05:14.333Z,59.50
2018-06-16T16:07:42.696Z,59.70
2018-06-16T16:10:11.018Z,59.40
2018-06-16T16:12:39.450Z,59.00
2018-06-16T16:15:07.849Z,59.20
2018-06-16T16:17:36.225Z,59.40
2018-06-16T16:20:04.686Z,59.50
2018-06-16T16:22:33.096Z,59.70
2018-06-16T16:25:01.542Z,59.90
2018-06-16T16:27:30.311Z,59.80
2018-06-16T16:29:58.676Z,60.40
2018-06-16T16:32:27.036Z,60.90
2018-06-16T16:34:55.383Z,61.00
2018-06-16T16:37:23.765Z,61.20
2018-06-16T16:39:52.108Z,61.50
2018-06-16T16:42:20.486Z,61.20
2018-06-16T16:44:48.958Z,60.40
2018-06-16T16:47:17.351Z,60.30
2018-06-16T16:49:45.722Z,60.00
2018-06-16T16:52:14.129Z,60.70
2018-06-16T16:54:42.491Z,61.20
2018-06-16T16:57:10.867Z,61.20
2018-06-16T16:59:39.519Z,59.60
2018-06-16T17:02:08.244Z,59.80
2018-06-16T17:04:36.597Z,60.00
2018-06-16T17:07:04.976Z,60.40
2018-06-16T17:09:33.345Z,59.80
2018-06-16T17:12:01.700Z,60.80
2018-06-16T17:14:30.153Z,59.50
2018-06-16T17:16:58.528Z,59.50
2018-06-16T17:21:55.102Z,59.10
2018-06-16T17:24:23.450Z,58.60
2018-06-16T17:26:51.965Z,58.30
2018-06-16T17:29:20.319Z,57.90
2018-06-16T17:31:48.735Z,57.70
2018-06-16T17:34:17.065Z,57.70
2018-06-16T17:36:45.447Z,57.50
2018-06-16T17:39:13.785Z,57.30
2018-06-16T17:41:42.201Z,56.90
2018-06-16T17:44:10.625Z,57.20
2018-06-16T17:46:38.972Z,58.00
2018-06-16T17:49:07.386Z,57.80
2018-06-16T17:51:35.764Z,57.00
2018-06-16T17:54:04.193Z,56.30
2018-06-16T17:56:32.548Z,56.90
2018-06-16T17:59:00.887Z,56.60
2018-06-16T18:01:29.204Z,56.20
2018-06-16T18:03:57.855Z,55.90
2018-06-16T18:06:26.230Z,56.60
2018-06-16T18:08:54.586Z,55.90
2018-06-16T18:11:23.021Z,55.60
2018-06-16T18:13:51.409Z,55.70
2018-06-16T18:16:19.781Z,55.80
2018-06-16T18:18:48.225Z,56.70
2018-06-16T18:21:16.636Z,57.00
2018-06-16T18:23:44.996Z,58.00
2018-06-16T18:26:13.473Z,57.20
2018-06-16T18:28:41.825Z,58.20
2018-06-16T18:31:10.181Z,58.10
2018-06-16T18:33:38.604Z,57.30
2018-06-16T18:36:07.032Z,57.30
2018-06-16T18:38:35.360Z,57.70
2018-06-16T18:43:31.978Z,57.80
2018-06-16T18:46:00.327Z,58.00
2018-06-16T18:48:28.672Z,57.60
2018-06-16T18:50:57.073Z,58.40
2018-06-16T18:53:25.425Z,59.60
2018-06-16T18:55:53.859Z,59.40
2018-06-16T18:58:22.246Z,58.90
2018-06-16T19:00:50.584Z,59.50
2018-06-16T19:03:18.963Z,60.30
2018-06-16T19:05:47.373Z,60.00
2018-06-16T19:09:45.202Z,60.30
2018-06-16T19:12:13.591Z,61.60
2018-06-16T19:14:42.008Z,62.20
2018-06-16T19:17:10.377Z,61.80
2018-06-16T19:19:38.785Z,62.00
2018-06-16T19:22:07.118Z,61.60
2018-06-16T19:24:35.804Z,62.20
2018-06-16T19:27:04.204Z,62.10
2018-06-16T19:29:32.592Z,61.70
2018-06-16T19:32:01.073Z,62.50
2018-06-16T19:34:29.434Z,62.30
2018-06-16T19:39:25.969Z,62.80
2018-06-16T19:41:54.271Z,63.60
2018-06-16T19:46:50.692Z,62.30
2018-06-16T19:49:19.092Z,62.60
2018-06-16T19:51:47.596Z,64.10
2018-06-16T19:54:15.902Z,63.60
2018-06-16T19:56:44.271Z,64.40
2018-06-16T19:59:12.617Z,64.20
2018-06-16T20:01:40.963Z,62.90
2018-06-16T20:04:09.343Z,62.20
2018-06-16T20:06:37.753Z,62.40
2018-06-16T20:09:06.828Z,62.30
2018-06-16T20:11:35.292Z,62.20
2018-06-16T20:14:03.630Z,62.40
2018-06-16T20:16:32.027Z,62.70
2018-06-16T20:19:00.459Z,62.50
2018-06-16T20:21:28.798Z,63.70
2018-06-16T20:23:57.165Z,63.00
2018-06-16T20:26:25.538Z,63.20
2018-06-16T20:28:54.016Z,63.60
2018-06-16T20:31:22.736Z,63.80
2018-06-16T20:33:51.259Z,65.10
2018-06-16T20:36:19.639Z,64.60
2018-06-16T20:38:48.127Z,64.00
2018-06-16T20:41:16.529Z,64.50
2018-06-16T20:43:44.987Z,65.30
2018-06-16T20:46:13.663Z,65.60
2018-06-16T20:51:10.182Z,66.70
2018-06-16T20:53:38.620Z,67.30
2018-06-16T20:56:07.426Z,67.80
2018-06-16T20:58:35.835Z,68.30
2018-06-16T21:01:04.253Z,68.40
2018-06-16T21:03:32.634Z,68.60
2018-06-16T21:06:00.993Z,68.50
2018-06-16T21:08:29.535Z,68.80
2018-06-16T21:10:57.884Z,68.70
2018-06-16T21:13:27.607Z,68.90
2018-06-16T21:15:56.025Z,68.70
2018-06-16T21:18:24.487Z,70.10
2018-06-16T21:20:52.850Z,70.00
2018-06-16T21:23:21.156Z,69.70
2018-06-16T21:25:49.481Z,70.20
2018-06-16T21:28:17.882Z,69.20
2018-06-16T21:30:46.213Z,68.70
2018-06-16T21:33:14.591Z,68.60
2018-06-16T21:35:42.941Z,68.60
2018-06-16T21:38:11.334Z,68.70
2018-06-16T21:43:04.862Z,68.40
2018-06-16T21:45:33.197Z,68.10
2018-06-16T21:48:01.559Z,68.20
2018-06-16T21:50:29.881Z,68.10
2018-06-16T21:52:58.233Z,68.00
2018-06-16T21:55:26.564Z,68.00
2018-06-16T21:57:54.974Z,68.00
2018-06-16T22:00:23.323Z,68.00
2018-06-16T22:02:51.817Z,68.00
2018-06-16T22:05:20.207Z,68.40
2018-06-16T22:07:48.603Z,67.80
2018-06-16T22:10:16.975Z,67.70
2018-06-16T22:12:45.321Z,67.10
2018-06-16T22:17:41.723Z,67.60
2018-06-16T22:20:10.028Z,67.50
2018-06-16T22:22:38.341Z,67.80
2018-06-16T22:25:06.630Z,67.50
2018-06-16T22:27:34.948Z,67.10
2018-06-16T22:30:03.313Z,66.50
2018-06-16T22:32:31.621Z,66.10
2018-06-16T22:34:59.952Z,66.90
2018-06-16T22:37:28.293Z,66.70
2018-06-16T22:39:56.601Z,66.40
2018-06-16T22:42:25.296Z,66.50
2018-06-16T22:44:53.566Z,67.50
2018-06-16T22:47:21.871Z,66.70
2018-06-16T22:52:18.216Z,66.60
2018-06-16T22:54:46.556Z,66.40
2018-06-16T22:57:14.872Z,66.50
2018-06-16T22:59:43.180Z,66.80
2018-06-16T23:02:11.493Z,66.70
2018-06-16T23:04:39.771Z,66.90
2018-06-16T23:07:08.053Z,66.60
2018-06-16T23:09:36.376Z,66.30
2018-06-16T23:12:04.708Z,67.00
2018-06-16T23:14:32.974Z,67.00
2018-06-16T23:17:01.258Z,67.10
2018-06-16T23:19:29.537Z,67.10
2018-06-16T23:21:57.811Z,66.70
2018-06-16T23:24:26.106Z,66.70
2018-06-16T23:26:54.380Z,67.10
2018-06-16T23:29:22.663Z,66.70
2018-06-16T23:31:51.052Z,67.20
2018-06-16T23:34:19.342Z,67.20
2018-06-16T23:36:47.791Z,66.70
2018-06-16T23:39:16.163Z,66.50
2018-06-16T23:41:44.524Z,66.30
2018-06-16T23:44:12.783Z,66.00
2018-06-16T23:46:41.058Z,65.50
2018-06-16T23:49:09.395Z,65.80
2018-06-16T23:51:37.655Z,66.20
2018-06-16T23:54:06.060Z,66.40
2018-06-16T23:56:34.332Z,66.30
2018-06-16T23:59:02.620Z,66.70
